sensor_id;sensor_type;location;lat;lon;timestamp;temperature;humidity
30336;DHT22;17142;47.990;7.846;2023-02-02T07:11:32;5.30;99.90
30336;DHT22;17142;47.990;7.846;2023-02-02T07:14:00;5.40;99.90
30336;DHT22;17142;47.990;7.846;2023-02-02T07:16:28;5.40;99.90
30336;DHT22;17142;47.990;7.846;2023-02-02T07:18:54;5.40;99.90
30336;DHT22;17142;47.990;7.846;2023-02-02T07:21:25;5.30;99.90
30336;DHT22;17142;47.990;7.846;2023-02-02T07:23:52;5.40;99.90
30336;DHT22;17142;47.990;7.846;2023-02-02T07:26:18;5.40;99.90
30336;DHT22;17142;47.990;7.846;2023-02-02T07:28:47;5.40;99.90
30336;DHT22;17142;47.990;7.846;2023-02-02T07:31:18;5.40;99.90
30336;DHT22;17142;47.990;7.846;2023-02-02T07:33:45;5.40;99.90
30336;DHT22;17142;47.990;7.846;2023-02-02T07:36:15;5.40;99.90
30336;DHT22;17142;47.990;7.846;2023-02-02T07:38:42;5.50;99.90
30336;DHT22;17142;47.990;7.846;2023-02-02T07:41:10;5.50;99.90
30336;DHT22;17142;47.990;7.846;2023-02-02T07:43:36;5.50;99.90
30336;DHT22;17142;47.990;7.846;2023-02-02T07:46:02;5.50;99.90
30336;DHT22;17142;47.990;7.846;2023-02-02T07:48:29;5.50;99.90
30336;DHT22;17142;47.990;7.846;2023-02-02T07:51:05;5.50;99.90
30336;DHT22;17142;47.990;7.846;2023-02-02T07:53:31;5.60;99.90
30336;DHT22;17142;47.990;7.846;2023-02-02T07:56:18;5.60;99.90
30336;DHT22;17142;47.990;7.846;2023-02-02T07:58:44;5.70;99.90
30336;DHT22;17142;47.990;7.846;2023-02-02T08:01:13;5.60;99.90
30336;DHT22;17142;47.990;7.846;2023-02-02T08:03:40;5.60;99.90
30336;DHT22;17142;47.990;7.846;2023-02-02T08:06:17;5.60;99.90
30336;DHT22;17142;47.990;7.846;2023-02-02T08:08:46;5.60;99.90
30336;DHT22;17142;47.990;7.846;2023-02-02T08:11:13;5.70;99.90
30336;DHT22;17142;47.990;7.846;2023-02-02T08:13:39;5.70;99.90
30336;DHT22;17142;47.990;7.846;2023-02-02T08:16:06;5.70;99.90
30336;DHT22;17142;47.990;7.846;2023-02-02T08:18:33;5.80;99.90
30336;DHT22;17142;47.990;7.846;2023-02-02T08:21:00;5.90;99.90
30336;DHT22;17142;47.990;7.846;2023-02-02T08:23:27;5.90;99.90
30336;DHT22;17142;47.990;7.846;2023-02-02T08:25:53;5.90;99.90
30336;DHT22;17142;47.990;7.846;2023-02-02T08:28:21;5.90;99.90
30336;DHT22;17142;47.990;7.846;2023-02-02T08:30:47;5.90;99.90
30336;DHT22;17142;47.990;7.846;2023-02-02T08:33:12;5.90;99.90
30336;DHT22;17142;47.990;7.846;2023-02-02T08:35:42;6.00;99.90
30336;DHT22;17142;47.990;7.846;2023-02-02T08:38:08;6.00;99.90
30336;DHT22;17142;47.990;7.846;2023-02-02T08:40:34;6.00;99.90
30336;DHT22;17142;47.990;7.846;2023-02-02T08:43:00;6.10;99.90
30336;DHT22;17142;47.990;7.846;2023-02-02T08:45:25;6.20;99.90
30336;DHT22;17142;47.990;7.846;2023-02-02T08:47:52;6.30;99.90
30336;DHT22;17142;47.990;7.846;2023-02-02T08:50:23;6.30;99.90
30336;DHT22;17142;47.990;7.846;2023-02-02T08:52:51;6.30;99.90
30336;DHT22;17142;47.990;7.846;2023-02-02T08:55:17;6.30;99.90
30336;DHT22;17142;47.990;7.846;2023-02-02T08:57:42;6.30;99.90
30336;DHT22;17142;47.990;7.846;2023-02-02T09:00:08;6.40;99.90
30336;DHT22;17142;47.990;7.846;2023-02-02T09:02:38;6.50;99.90
30336;DHT22;17142;47.990;7.846;2023-02-02T09:05:04;6.50;99.90
30336;DHT22;17142;47.990;7.846;2023-02-02T09:07:31;6.60;99.90
30336;DHT22;17142;47.990;7.846;2023-02-02T09:09:57;6.60;99.90
30336;DHT22;17142;47.990;7.846;2023-02-02T09:12:23;6.60;99.90
30336;DHT22;17142;47.990;7.846;2023-02-02T09:14:49;6.60;99.90
30336;DHT22;17142;47.990;7.846;2023-02-02T09:17:17;6.60;99.90
30336;DHT22;17142;47.990;7.846;2023-02-02T09:19:42;6.70;99.90
30336;DHT22;17142;47.990;7.846;2023-02-02T09:22:08;6.90;99.90
30336;DHT22;17142;47.990;7.846;2023-02-02T09:24:34;7.00;99.90
30336;DHT22;17142;47.990;7.846;2023-02-02T09:26:59;7.00;99.90
30336;DHT22;17142;47.990;7.846;2023-02-02T09:29:25;6.90;99.90
30336;DHT22;17142;47.990;7.846;2023-02-02T09:31:53;6.90;99.90
30336;DHT22;17142;47.990;7.846;2023-02-02T09:34:21;6.90;99.90
30336;DHT22;17142;47.990;7.846;2023-02-02T09:36:48;6.90;99.90
30336;DHT22;17142;47.990;7.846;2023-02-02T09:39:14;6.80;99.90
30336;DHT22;17142;47.990;7.846;2023-02-02T09:42:16;6.80;99.90
30336;DHT22;17142;47.990;7.846;2023-02-02T09:47:27;6.70;99.90
30336;DHT22;17142;47.990;7.846;2023-02-02T09:55:44;6.70;99.90
30336;DHT22;17142;47.990;7.846;2023-02-02T09:58:18;6.80;99.90
30336;DHT22;17142;47.990;7.846;2023-02-02T10:01:06;6.80;99.90
30336;DHT22;17142;47.990;7.846;2023-02-02T10:03:41;6.80;99.90
30336;DHT22;17142;47.990;7.846;2023-02-02T10:06:14;6.80;99.90
30336;DHT22;17142;47.990;7.846;2023-02-02T10:08:52;6.80;99.90
30336;DHT22;17142;47.990;7.846;2023-02-02T10:13:52;6.80;99.90
30336;DHT22;17142;47.990;7.846;2023-02-02T10:16:22;6.80;99.90
30336;DHT22;17142;47.990;7.846;2023-02-02T10:23:54;6.70;99.90
30336;DHT22;17142;47.990;7.846;2023-02-02T10:26:38;6.70;99.90
30336;DHT22;17142;47.990;7.846;2023-02-02T10:45:02;6.70;99.90
30336;DHT22;17142;47.990;7.846;2023-02-02T10:47:31;6.80;99.90
30336;DHT22;17142;47.990;7.846;2023-02-02T10:50:22;6.80;99.90
30336;DHT22;17142;47.990;7.846;2023-02-02T10:52:54;6.90;99.90
30336;DHT22;17142;47.990;7.846;2023-02-02T10:58:31;6.90;99.90
30336;DHT22;17142;47.990;7.846;2023-02-02T11:01:00;6.80;99.90
30336;DHT22;17142;47.990;7.846;2023-02-02T11:03:30;6.80;99.90
30336;DHT22;17142;47.990;7.846;2023-02-02T11:05:59;6.70;99.90
30336;DHT22;17142;47.990;7.846;2023-02-02T11:08:49;6.60;99.90
30336;DHT22;17142;47.990;7.846;2023-02-02T11:11:37;6.60;99.90
30336;DHT22;17142;47.990;7.846;2023-02-02T11:16:39;6.60;99.90
30336;DHT22;17142;47.990;7.846;2023-02-02T11:21:51;6.60;99.90
30336;DHT22;17142;47.990;7.846;2023-02-02T11:24:29;6.50;99.90
30336;DHT22;17142;47.990;7.846;2023-02-02T11:27:27;6.60;99.90
30336;DHT22;17142;47.990;7.846;2023-02-02T11:29:53;6.70;99.90
30336;DHT22;17142;47.990;7.846;2023-02-02T11:32:27;6.70;99.90
30336;DHT22;17142;47.990;7.846;2023-02-02T11:35:15;6.80;99.90
30336;DHT22;17142;47.990;7.846;2023-02-02T11:40:42;7.10;99.90
30336;DHT22;17142;47.990;7.846;2023-02-02T11:43:28;7.20;99.90
30336;DHT22;17142;47.990;7.846;2023-02-02T11:45:58;7.20;99.90
30336;DHT22;17142;47.990;7.846;2023-02-02T11:48:32;7.30;99.90
30336;DHT22;17142;47.990;7.846;2023-02-02T11:51:00;7.20;99.90
30336;DHT22;17142;47.990;7.846;2023-02-02T11:53:38;7.20;99.90
30336;DHT22;17142;47.990;7.846;2023-02-02T11:56:22;7.20;99.90
30336;DHT22;17142;47.990;7.846;2023-02-02T11:58:54;7.20;99.90
30336;DHT22;17142;47.990;7.846;2023-02-02T12:01:37;7.20;99.90
30336;DHT22;17142;47.990;7.846;2023-02-02T12:06:45;7.10;99.90
30336;DHT22;17142;47.990;7.846;2023-02-02T12:09:18;7.10;99.90
30336;DHT22;17142;47.990;7.846;2023-02-02T12:17:38;7.10;99.90
30336;DHT22;17142;47.990;7.846;2023-02-02T12:28:54;7.00;99.90
30336;DHT22;17142;47.990;7.846;2023-02-02T12:46:00;7.00;99.90
30336;DHT22;17142;47.990;7.846;2023-02-02T12:56:48;7.00;99.90
30336;DHT22;17142;47.990;7.846;2023-02-02T12:59:53;7.00;99.90
30336;DHT22;17142;47.990;7.846;2023-02-02T13:08:05;6.90;99.90
30336;DHT22;17142;47.990;7.846;2023-02-02T13:10:41;6.90;99.90
30336;DHT22;17142;47.990;7.846;2023-02-02T13:15:46;6.80;99.90
30336;DHT22;17142;47.990;7.846;2023-02-02T13:18:23;6.70;99.90
30336;DHT22;17142;47.990;7.846;2023-02-02T13:20:54;6.70;99.90
30336;DHT22;17142;47.990;7.846;2023-02-02T13:23:27;6.70;99.90
30336;DHT22;17142;47.990;7.846;2023-02-02T13:34:34;6.70;99.90
30336;DHT22;17142;47.990;7.846;2023-02-02T13:37:17;6.70;99.90
30336;DHT22;17142;47.990;7.846;2023-02-02T13:40:00;6.70;99.90
30336;DHT22;17142;47.990;7.846;2023-02-02T13:48:29;6.70;99.90
30336;DHT22;17142;47.990;7.846;2023-02-02T13:59:21;6.70;99.90
30336;DHT22;17142;47.990;7.846;2023-02-02T14:01:50;6.70;99.90
30336;DHT22;17142;47.990;7.846;2023-02-02T14:04:21;6.70;99.90
30336;DHT22;17142;47.990;7.846;2023-02-02T14:09:24;6.60;99.90
30336;DHT22;17142;47.990;7.846;2023-02-02T14:11:57;6.60;99.90
30336;DHT22;17142;47.990;7.846;2023-02-02T14:14:24;6.60;99.90
30336;DHT22;17142;47.990;7.846;2023-02-02T14:16:59;6.50;99.90
30336;DHT22;17142;47.990;7.846;2023-02-02T14:22:03;6.40;99.90
30336;DHT22;17142;47.990;7.846;2023-02-02T14:38:01;6.20;99.90
30336;DHT22;17142;47.990;7.846;2023-02-02T14:43:32;6.10;99.90
30336;DHT22;17142;47.990;7.846;2023-02-02T14:48:41;6.20;99.90
30336;DHT22;17142;47.990;7.846;2023-02-02T14:53:45;6.30;99.90
30336;DHT22;17142;47.990;7.846;2023-02-02T14:56:13;6.30;99.90
30336;DHT22;17142;47.990;7.846;2023-02-02T15:06:37;6.50;99.90
30336;DHT22;17142;47.990;7.846;2023-02-02T15:23:03;6.60;99.90
30336;DHT22;17142;47.990;7.846;2023-02-02T15:25:35;6.60;99.90
30336;DHT22;17142;47.990;7.846;2023-02-02T15:28:41;6.60;99.90
30336;DHT22;17142;47.990;7.846;2023-02-02T15:33:41;6.70;99.90
30336;DHT22;17142;47.990;7.846;2023-02-02T15:36:19;6.60;99.90
30336;DHT22;17142;47.990;7.846;2023-02-02T15:38:49;6.70;99.90
30336;DHT22;17142;47.990;7.846;2023-02-02T15:41:26;6.70;99.90
30336;DHT22;17142;47.990;7.846;2023-02-02T15:43:57;6.80;99.90
30336;DHT22;17142;47.990;7.846;2023-02-02T15:46:25;6.80;99.90
30336;DHT22;17142;47.990;7.846;2023-02-02T15:49:27;6.80;99.90
30336;DHT22;17142;47.990;7.846;2023-02-02T15:51:56;6.80;99.90
30336;DHT22;17142;47.990;7.846;2023-02-02T15:54:29;6.80;99.90
30336;DHT22;17142;47.990;7.846;2023-02-02T15:57:00;6.80;99.90
30336;DHT22;17142;47.990;7.846;2023-02-02T15:59:28;6.80;99.90
30336;DHT22;17142;47.990;7.846;2023-02-02T16:04:42;6.90;99.90
30336;DHT22;17142;47.990;7.846;2023-02-02T16:07:12;6.90;99.90
30336;DHT22;17142;47.990;7.846;2023-02-02T16:09:43;6.90;99.90
30336;DHT22;17142;47.990;7.846;2023-02-02T16:12:21;6.80;99.90
30336;DHT22;17142;47.990;7.846;2023-02-02T16:14:52;6.90;99.90
30336;DHT22;17142;47.990;7.846;2023-02-02T16:17:29;6.90;99.90
30336;DHT22;17142;47.990;7.846;2023-02-02T16:20:08;6.90;99.90
30336;DHT22;17142;47.990;7.846;2023-02-02T16:22:38;6.90;99.90
30336;DHT22;17142;47.990;7.846;2023-02-02T16:25:08;6.90;99.90
30336;DHT22;17142;47.990;7.846;2023-02-02T16:27:38;6.90;99.90
30336;DHT22;17142;47.990;7.846;2023-02-02T16:30:09;6.90;99.90
30336;DHT22;17142;47.990;7.846;2023-02-02T16:32:38;6.90;99.90
30336;DHT22;17142;47.990;7.846;2023-02-02T16:38:30;6.90;99.90
30336;DHT22;17142;47.990;7.846;2023-02-02T16:41:05;6.90;99.90
30336;DHT22;17142;47.990;7.846;2023-02-02T16:43:32;6.90;99.90
30336;DHT22;17142;47.990;7.846;2023-02-02T16:46:09;6.90;99.90
30336;DHT22;17142;47.990;7.846;2023-02-02T16:58:54;7.00;99.90
30336;DHT22;17142;47.990;7.846;2023-02-02T17:01:34;7.00;99.90
30336;DHT22;17142;47.990;7.846;2023-02-02T17:04:01;7.00;99.90
30336;DHT22;17142;47.990;7.846;2023-02-02T17:06:29;7.10;99.90
30336;DHT22;17142;47.990;7.846;2023-02-02T17:08:56;7.10;99.90
30336;DHT22;17142;47.990;7.846;2023-02-02T17:13:49;7.10;99.90
30336;DHT22;17142;47.990;7.846;2023-02-02T17:16:18;7.10;99.90
30336;DHT22;17142;47.990;7.846;2023-02-02T17:18:47;7.10;99.90
30336;DHT22;17142;47.990;7.846;2023-02-02T17:21:18;7.10;99.90
30336;DHT22;17142;47.990;7.846;2023-02-02T17:23:45;7.10;99.90
30336;DHT22;17142;47.990;7.846;2023-02-02T17:26:13;7.10;99.90
30336;DHT22;17142;47.990;7.846;2023-02-02T17:28:41;7.10;99.90
30336;DHT22;17142;47.990;7.846;2023-02-02T17:31:09;7.10;99.90
30336;DHT22;17142;47.990;7.846;2023-02-02T17:33:36;7.10;99.90
30336;DHT22;17142;47.990;7.846;2023-02-02T17:36:03;7.10;99.90
30336;DHT22;17142;47.990;7.846;2023-02-02T17:38:30;7.10;99.90
30336;DHT22;17142;47.990;7.846;2023-02-02T17:40:59;7.10;99.90
30336;DHT22;17142;47.990;7.846;2023-02-02T17:43:25;7.00;99.90
30336;DHT22;17142;47.990;7.846;2023-02-02T17:45:51;7.00;99.90
30336;DHT22;17142;47.990;7.846;2023-02-02T17:48:17;6.90;99.90
30336;DHT22;17142;47.990;7.846;2023-02-02T17:50:46;6.90;99.90
30336;DHT22;17142;47.990;7.846;2023-02-02T17:53:14;6.80;99.90
30336;DHT22;17142;47.990;7.846;2023-02-02T17:55:42;6.70;99.90
30336;DHT22;17142;47.990;7.846;2023-02-02T17:58:11;6.60;99.90
30336;DHT22;17142;47.990;7.846;2023-02-02T18:00:39;6.60;99.90
30336;DHT22;17142;47.990;7.846;2023-02-02T18:03:49;6.50;99.90
30336;DHT22;17142;47.990;7.846;2023-02-02T18:06:11;6.40;99.90
30336;DHT22;17142;47.990;7.846;2023-02-02T18:08:37;6.40;99.90
30336;DHT22;17142;47.990;7.846;2023-02-02T18:11:05;6.40;99.90
30336;DHT22;17142;47.990;7.846;2023-02-02T18:13:33;6.30;99.90
30336;DHT22;17142;47.990;7.846;2023-02-02T18:15:59;6.40;99.90
30336;DHT22;17142;47.990;7.846;2023-02-02T18:18:24;6.40;99.90
30336;DHT22;17142;47.990;7.846;2023-02-02T18:20:51;6.40;99.90
30336;DHT22;17142;47.990;7.846;2023-02-02T18:23:18;6.40;99.90
30336;DHT22;17142;47.990;7.846;2023-02-02T18:25:45;6.50;99.90
30336;DHT22;17142;47.990;7.846;2023-02-02T18:28:11;6.40;99.90
30336;DHT22;17142;47.990;7.846;2023-02-02T18:30:42;6.40;99.90
30336;DHT22;17142;47.990;7.846;2023-02-02T18:33:09;6.40;99.90
30336;DHT22;17142;47.990;7.846;2023-02-02T18:35:41;6.40;99.90
30336;DHT22;17142;47.990;7.846;2023-02-02T18:38:09;6.40;99.90
30336;DHT22;17142;47.990;7.846;2023-02-02T18:40:35;6.40;99.90
30336;DHT22;17142;47.990;7.846;2023-02-02T18:43:01;6.40;99.90
30336;DHT22;17142;47.990;7.846;2023-02-02T18:45:26;6.30;99.90
30336;DHT22;17142;47.990;7.846;2023-02-02T18:47:53;6.30;99.90
30336;DHT22;17142;47.990;7.846;2023-02-02T18:50:18;6.30;99.90
30336;DHT22;17142;47.990;7.846;2023-02-02T18:52:46;6.30;99.90
30336;DHT22;17142;47.990;7.846;2023-02-02T18:55:14;6.30;99.90
30336;DHT22;17142;47.990;7.846;2023-02-02T18:57:40;6.30;99.90
30336;DHT22;17142;47.990;7.846;2023-02-02T19:00:06;6.40;99.90
30336;DHT22;17142;47.990;7.846;2023-02-02T19:02:34;6.40;99.90
30336;DHT22;17142;47.990;7.846;2023-02-02T19:04:59;6.40;99.90
30336;DHT22;17142;47.990;7.846;2023-02-02T19:07:44;6.40;99.90
30336;DHT22;17142;47.990;7.846;2023-02-02T19:10:21;6.50;99.90
30336;DHT22;17142;47.990;7.846;2023-02-02T19:12:53;6.50;99.90
30336;DHT22;17142;47.990;7.846;2023-02-02T19:15:23;6.50;99.90
30336;DHT22;17142;47.990;7.846;2023-02-02T19:17:53;6.50;99.90
30336;DHT22;17142;47.990;7.846;2023-02-02T19:20:29;6.50;99.90
30336;DHT22;17142;47.990;7.846;2023-02-02T19:23:09;6.50;99.90
30336;DHT22;17142;47.990;7.846;2023-02-02T19:25:39;6.40;99.90
30336;DHT22;17142;47.990;7.846;2023-02-02T19:30:40;6.40;99.90
30336;DHT22;17142;47.990;7.846;2023-02-02T19:33:11;6.40;99.90
30336;DHT22;17142;47.990;7.846;2023-02-02T19:35:37;6.40;99.90
30336;DHT22;17142;47.990;7.846;2023-02-02T19:38:13;6.40;99.90
30336;DHT22;17142;47.990;7.846;2023-02-02T19:40:42;6.40;99.90
30336;DHT22;17142;47.990;7.846;2023-02-02T19:45:38;6.30;99.90
30336;DHT22;17142;47.990;7.846;2023-02-02T19:48:25;6.20;99.90
30336;DHT22;17142;47.990;7.846;2023-02-02T19:50:52;6.20;99.90
30336;DHT22;17142;47.990;7.846;2023-02-02T19:53:36;6.20;99.90
30336;DHT22;17142;47.990;7.846;2023-02-02T19:56:26;6.10;99.90
30336;DHT22;17142;47.990;7.846;2023-02-02T19:58:53;6.10;99.90
30336;DHT22;17142;47.990;7.846;2023-02-02T20:01:20;6.10;99.90
30336;DHT22;17142;47.990;7.846;2023-02-02T20:03:47;6.10;99.90
30336;DHT22;17142;47.990;7.846;2023-02-02T20:06:26;6.10;99.90
30336;DHT22;17142;47.990;7.846;2023-02-02T20:08:55;6.10;99.90
30336;DHT22;17142;47.990;7.846;2023-02-02T20:11:35;6.20;99.90
30336;DHT22;17142;47.990;7.846;2023-02-02T20:16:51;6.20;99.90
30336;DHT22;17142;47.990;7.846;2023-02-02T20:19:34;6.20;99.90
30336;DHT22;17142;47.990;7.846;2023-02-02T20:22:26;6.20;99.90
30336;DHT22;17142;47.990;7.846;2023-02-02T20:24:58;6.20;99.90
30336;DHT22;17142;47.990;7.846;2023-02-02T20:27:27;6.20;99.90
30336;DHT22;17142;47.990;7.846;2023-02-02T20:29:55;6.30;99.90
30336;DHT22;17142;47.990;7.846;2023-02-02T20:32:37;6.30;99.90
30336;DHT22;17142;47.990;7.846;2023-02-02T20:35:34;6.30;99.90
30336;DHT22;17142;47.990;7.846;2023-02-02T20:38:01;6.30;99.90
30336;DHT22;17142;47.990;7.846;2023-02-02T20:40:28;6.30;99.90
30336;DHT22;17142;47.990;7.846;2023-02-02T20:42:55;6.20;99.90
30336;DHT22;17142;47.990;7.846;2023-02-02T20:45:24;6.10;99.90
30336;DHT22;17142;47.990;7.846;2023-02-02T20:47:49;6.00;99.90
30336;DHT22;17142;47.990;7.846;2023-02-02T20:52:43;6.10;99.90
30336;DHT22;17142;47.990;7.846;2023-02-02T20:55:12;6.10;99.90
30336;DHT22;17142;47.990;7.846;2023-02-02T20:57:40;6.20;99.90
30336;DHT22;17142;47.990;7.846;2023-02-02T21:00:09;6.20;99.90
30336;DHT22;17142;47.990;7.846;2023-02-02T21:02:36;6.10;99.90
30336;DHT22;17142;47.990;7.846;2023-02-02T21:05:02;6.10;99.90
30336;DHT22;17142;47.990;7.846;2023-02-02T21:07:27;6.10;99.90
30336;DHT22;17142;47.990;7.846;2023-02-02T21:09:55;6.10;99.90
30336;DHT22;17142;47.990;7.846;2023-02-02T21:12:21;6.10;99.90
30336;DHT22;17142;47.990;7.846;2023-02-02T21:14:53;6.10;99.90
30336;DHT22;17142;47.990;7.846;2023-02-02T21:17:21;6.10;99.90
30336;DHT22;17142;47.990;7.846;2023-02-02T21:19:49;6.10;99.90
30336;DHT22;17142;47.990;7.846;2023-02-02T21:22:15;6.10;99.90
30336;DHT22;17142;47.990;7.846;2023-02-02T21:24:40;6.10;99.90
30336;DHT22;17142;47.990;7.846;2023-02-02T21:27:07;6.10;99.90
30336;DHT22;17142;47.990;7.846;2023-02-02T21:29:33;6.10;99.90
30336;DHT22;17142;47.990;7.846;2023-02-02T21:31:59;6.10;99.90
30336;DHT22;17142;47.990;7.846;2023-02-02T21:34:26;6.10;99.90
30336;DHT22;17142;47.990;7.846;2023-02-02T21:36:56;6.10;99.90
30336;DHT22;17142;47.990;7.846;2023-02-02T21:42:12;6.00;99.90
30336;DHT22;17142;47.990;7.846;2023-02-02T21:44:43;6.00;99.90
30336;DHT22;17142;47.990;7.846;2023-02-02T21:49:56;5.90;99.90
30336;DHT22;17142;47.990;7.846;2023-02-02T21:52:23;5.90;99.90
30336;DHT22;17142;47.990;7.846;2023-02-02T21:54:50;5.90;99.90
30336;DHT22;17142;47.990;7.846;2023-02-02T21:57:34;5.90;99.90
30336;DHT22;17142;47.990;7.846;2023-02-02T22:00:11;5.90;99.90
30336;DHT22;17142;47.990;7.846;2023-02-02T22:02:42;5.90;99.90
30336;DHT22;17142;47.990;7.846;2023-02-02T22:05:18;5.90;99.90
30336;DHT22;17142;47.990;7.846;2023-02-02T22:07:47;5.90;99.90
30336;DHT22;17142;47.990;7.846;2023-02-02T22:10:34;5.90;99.90
30336;DHT22;17142;47.990;7.846;2023-02-02T22:13:08;6.00;99.90
30336;DHT22;17142;47.990;7.846;2023-02-02T22:15:37;6.00;99.90
30336;DHT22;17142;47.990;7.846;2023-02-02T22:18:32;6.00;99.90
30336;DHT22;17142;47.990;7.846;2023-02-02T22:20:59;6.10;99.90
30336;DHT22;17142;47.990;7.846;2023-02-02T22:23:28;6.10;99.90
30336;DHT22;17142;47.990;7.846;2023-02-02T22:25:55;6.10;99.90
30336;DHT22;17142;47.990;7.846;2023-02-02T22:30:50;6.00;99.90
30336;DHT22;17142;47.990;7.846;2023-02-02T22:33:16;6.10;99.90
30336;DHT22;17142;47.990;7.846;2023-02-02T22:35:42;6.10;99.90
30336;DHT22;17142;47.990;7.846;2023-02-02T22:38:09;6.10;99.90
30336;DHT22;17142;47.990;7.846;2023-02-02T22:40:37;6.10;99.90
30336;DHT22;17142;47.990;7.846;2023-02-02T22:43:04;6.00;99.90
30336;DHT22;17142;47.990;7.846;2023-02-02T22:45:30;6.00;99.90
30336;DHT22;17142;47.990;7.846;2023-02-02T22:47:56;6.00;99.90
30336;DHT22;17142;47.990;7.846;2023-02-02T22:50:26;6.00;99.90
30336;DHT22;17142;47.990;7.846;2023-02-02T22:52:52;6.00;99.90
30336;DHT22;17142;47.990;7.846;2023-02-02T22:55:18;6.00;99.90
30336;DHT22;17142;47.990;7.846;2023-02-02T22:57:44;6.00;99.90
30336;DHT22;17142;47.990;7.846;2023-02-02T23:00:22;6.10;99.90
30336;DHT22;17142;47.990;7.846;2023-02-02T23:02:48;6.00;99.90
30336;DHT22;17142;47.990;7.846;2023-02-02T23:05:17;6.00;99.90
30336;DHT22;17142;47.990;7.846;2023-02-02T23:07:43;6.00;99.90
30336;DHT22;17142;47.990;7.846;2023-02-02T23:10:20;5.90;99.90
30336;DHT22;17142;47.990;7.846;2023-02-02T23:12:52;5.90;99.90
30336;DHT22;17142;47.990;7.846;2023-02-02T23:15:22;5.90;99.90
30336;DHT22;17142;47.990;7.846;2023-02-02T23:17:48;5.80;99.90
30336;DHT22;17142;47.990;7.846;2023-02-02T23:20:14;5.90;99.90
30336;DHT22;17142;47.990;7.846;2023-02-02T23:22:40;5.90;99.90
30336;DHT22;17142;47.990;7.846;2023-02-02T23:25:06;5.90;99.90
30336;DHT22;17142;47.990;7.846;2023-02-02T23:27:32;5.90;99.90
30336;DHT22;17142;47.990;7.846;2023-02-02T23:29:58;5.90;99.90
30336;DHT22;17142;47.990;7.846;2023-02-02T23:32:23;5.90;99.90
30336;DHT22;17142;47.990;7.846;2023-02-02T23:34:51;5.90;99.90
30336;DHT22;17142;47.990;7.846;2023-02-02T23:37:17;5.90;99.90
30336;DHT22;17142;47.990;7.846;2023-02-02T23:39:43;5.90;99.90
30336;DHT22;17142;47.990;7.846;2023-02-02T23:42:11;5.90;99.90
30336;DHT22;17142;47.990;7.846;2023-02-02T23:44:39;6.00;99.90
30336;DHT22;17142;47.990;7.846;2023-02-02T23:47:05;6.00;99.90
30336;DHT22;17142;47.990;7.846;2023-02-02T23:49:31;5.90;99.90
30336;DHT22;17142;47.990;7.846;2023-02-02T23:52:00;5.90;99.90
30336;DHT22;17142;47.990;7.846;2023-02-02T23:54:26;5.90;99.90
30336;DHT22;17142;47.990;7.846;2023-02-02T23:56:51;5.90;99.90
30336;DHT22;17142;47.990;7.846;2023-02-02T23:59:17;5.90;99.90
